createdAt,value
2018-02-25T00:00:40.864Z,0
2018-02-25T00:01:40.796Z,0
2018-02-25T00:02:40.802Z,0
2018-02-25T00:03:40.558Z,0
2018-02-25T00:04:41.084Z,0
2018-02-25T00:05:40.829Z,0
2018-02-25T00:06:41.100Z,0
2018-02-25T00:07:41.104Z,0
2018-02-25T00:08:40.852Z,0
2018-02-25T00:09:41.134Z,0
2018-02-25T00:10:41.175Z,0
2018-02-25T00:11:40.889Z,0
2018-02-25T00:12:41.157Z,0
2018-02-25T00:13:41.211Z,0
2018-02-25T00:14:41.160Z,0
2018-02-25T00:15:40.664Z,0
2018-02-25T00:16:40.918Z,0
2018-02-25T00:17:41.197Z,0
2018-02-25T00:18:41.303Z,0
2018-02-25T00:19:41.203Z,0
2018-02-25T00:20:40.963Z,0
2018-02-25T00:21:40.969Z,0
2018-02-25T00:22:40.979Z,0
2018-02-25T00:23:41.232Z,0
2018-02-25T00:24:41.250Z,0
2018-02-25T00:25:40.797Z,0
2018-02-25T00:26:41.012Z,0
2018-02-25T00:27:41.275Z,0
2018-02-25T00:28:41.031Z,0
2018-02-25T00:29:41.293Z,0
2018-02-25T00:30:40.894Z,0
2018-02-25T00:31:40.547Z,0
2018-02-25T00:32:41.062Z,0
2018-02-25T00:33:41.328Z,0
2018-02-25T00:34:41.081Z,0
2018-02-25T00:35:41.342Z,0
2018-02-25T00:36:41.094Z,0
2018-02-25T00:37:40.596Z,0
2018-02-25T00:38:41.109Z,0
2018-02-25T00:39:41.120Z,0
2018-02-25T00:40:41.178Z,0
2018-02-25T00:41:41.146Z,0
2018-02-25T00:42:41.162Z,0
2018-02-25T00:43:41.158Z,0
2018-02-25T00:44:41.415Z,0
2018-02-25T00:45:41.170Z,0
2018-02-25T00:46:41.446Z,0
2018-02-25T00:47:41.435Z,0
2018-02-25T00:48:40.940Z,0
2018-02-25T00:49:41.227Z,0
2018-02-25T00:50:41.472Z,0
2018-02-25T00:51:41.225Z,0
2018-02-25T00:52:41.247Z,0
2018-02-25T00:53:40.729Z,0
2018-02-25T00:54:41.249Z,0
2018-02-25T00:55:41.557Z,0
2018-02-25T00:56:41.265Z,0
2018-02-25T00:57:41.521Z,0
2018-02-25T00:58:41.275Z,0
2018-02-25T00:59:41.547Z,0
2018-02-25T01:00:41.405Z,0
2018-02-25T01:01:41.056Z,0
2018-02-25T01:02:41.562Z,0
2018-02-25T01:03:41.582Z,0
2018-02-25T01:04:41.583Z,0
2018-02-25T01:05:41.080Z,0
2018-02-25T01:06:41.359Z,0
2018-02-25T01:07:41.605Z,0
2018-02-25T01:08:41.624Z,0
2018-02-25T01:09:41.116Z,0
2018-02-25T01:10:41.122Z,0
2018-02-25T01:11:41.649Z,0
2018-02-25T01:12:41.654Z,0
2018-02-25T01:13:41.655Z,0
2018-02-25T01:14:41.155Z,0
2018-02-25T01:15:41.679Z,0
2018-02-25T01:16:41.434Z,0
2018-02-25T01:17:41.440Z,0
2018-02-25T01:18:41.713Z,0
2018-02-25T01:19:41.449Z,0
2018-02-25T01:20:41.208Z,0
2018-02-25T01:21:41.726Z,0
2018-02-25T01:22:41.737Z,0
2018-02-25T01:23:41.231Z,0
2018-02-25T01:24:41.748Z,0
2018-02-25T01:25:41.786Z,0
2018-02-25T01:26:41.759Z,0
2018-02-25T01:27:41.518Z,0
2018-02-25T01:28:41.575Z,0
2018-02-25T01:29:41.795Z,0
2018-02-25T01:30:41.571Z,0
2018-02-25T01:31:41.557Z,0
2018-02-25T01:32:41.812Z,0
2018-02-25T01:33:41.308Z,0
2018-02-25T01:34:41.325Z,0
2018-02-25T01:35:41.835Z,0
2018-02-25T01:36:41.342Z,0
2018-02-25T01:37:41.854Z,0
2018-02-25T01:38:41.953Z,0
2018-02-25T01:39:41.614Z,0
2018-02-25T01:40:41.621Z,0
2018-02-25T01:41:41.880Z,0
2018-02-25T01:42:41.638Z,0
2018-02-25T01:43:41.907Z,0
2018-02-25T01:44:41.701Z,0
2018-02-25T01:45:41.916Z,0
2018-02-25T01:46:41.674Z,0
2018-02-25T01:47:41.933Z,0
2018-02-25T01:48:41.687Z,0
2018-02-25T01:49:41.438Z,0
2018-02-25T01:50:41.957Z,0
2018-02-25T01:51:41.766Z,0
2018-02-25T01:52:41.462Z,0
2018-02-25T01:53:41.728Z,0
2018-02-25T01:54:41.991Z,0
2018-02-25T01:55:41.997Z,0
2018-02-25T01:56:41.500Z,0
2018-02-25T01:57:41.761Z,0
2018-02-25T01:58:42.033Z,0
2018-02-25T01:59:42.074Z,0
2018-02-25T02:00:41.784Z,0
2018-02-25T02:01:42.048Z,0
2018-02-25T02:02:42.059Z,0
2018-02-25T02:03:41.802Z,0
2018-02-25T02:04:41.809Z,0
2018-02-25T02:05:42.078Z,0
2018-02-25T02:06:41.572Z,0
2018-02-25T02:07:41.836Z,0
2018-02-25T02:08:41.849Z,0
2018-02-25T02:09:42.128Z,0
2018-02-25T02:10:42.114Z,0
2018-02-25T02:11:41.862Z,0
2018-02-25T02:12:41.876Z,0
2018-02-25T02:13:42.131Z,0
2018-02-25T02:14:42.187Z,0
2018-02-25T02:15:42.154Z,0
2018-02-25T02:16:41.908Z,0
2018-02-25T02:17:41.657Z,0
2018-02-25T02:18:41.664Z,0
2018-02-25T02:19:41.942Z,0
2018-02-25T02:20:41.936Z,0
2018-02-25T02:21:41.698Z,0
2018-02-25T02:22:41.692Z,0
2018-02-25T02:23:41.963Z,0
2018-02-25T02:24:42.220Z,0
2018-02-25T02:25:41.977Z,0
2018-02-25T02:26:42.231Z,0
2018-02-25T02:27:41.736Z,0
2018-02-25T02:28:41.995Z,0
2018-02-25T02:29:42.253Z,0
2018-02-25T02:30:42.325Z,0
2018-02-25T02:31:42.026Z,0
2018-02-25T02:32:42.279Z,0
2018-02-25T02:33:42.298Z,0
2018-02-25T02:34:42.307Z,0
2018-02-25T02:35:42.306Z,0
2018-02-25T02:36:41.802Z,0
2018-02-25T02:37:42.065Z,0
2018-02-25T02:38:42.073Z,0
2018-02-25T02:39:42.086Z,0
2018-02-25T02:40:42.352Z,0
2018-02-25T02:41:42.101Z,0
2018-02-25T02:42:42.103Z,0
2018-02-25T02:43:42.359Z,0
2018-02-25T02:44:42.385Z,0
2018-02-25T02:45:41.918Z,0
2018-02-25T02:46:42.148Z,0
2018-02-25T02:47:42.155Z,0
2018-02-25T02:48:42.400Z,0
2018-02-25T02:49:42.407Z,0
2018-02-25T02:50:42.427Z,0
2018-02-25T02:51:41.915Z,0
2018-02-25T02:52:41.922Z,0
2018-02-25T02:53:42.451Z,0
2018-02-25T02:54:42.446Z,0
2018-02-25T02:55:42.460Z,0
2018-02-25T02:56:42.466Z,0
2018-02-25T02:57:42.470Z,0
2018-02-25T02:58:41.979Z,0
2018-02-25T02:59:42.491Z,0
2018-02-25T03:00:42.037Z,0
2018-02-25T03:01:42.253Z,0
2018-02-25T03:02:42.249Z,0
2018-02-25T03:03:42.007Z,0
2018-02-25T03:04:42.536Z,0
2018-02-25T03:05:42.530Z,0
2018-02-25T03:06:42.287Z,0
2018-02-25T03:07:42.557Z,0
2018-02-25T03:08:42.299Z,0
2018-02-25T03:09:42.569Z,0
2018-02-25T03:10:42.562Z,0
2018-02-25T03:11:42.318Z,0
2018-02-25T03:12:42.328Z,0
2018-02-25T03:13:42.330Z,0
2018-02-25T03:14:42.594Z,0
2018-02-25T03:15:42.655Z,0
2018-02-25T03:16:42.361Z,0
2018-02-25T03:17:42.780Z,0
2018-02-25T03:18:42.390Z,0
2018-02-25T03:19:42.121Z,0
2018-02-25T03:20:42.634Z,0
2018-02-25T03:21:42.140Z,0
2018-02-25T03:22:42.401Z,0
2018-02-25T03:23:42.405Z,0
2018-02-25T03:24:42.413Z,0
2018-02-25T03:25:42.676Z,0
2018-02-25T03:26:42.176Z,0
2018-02-25T03:27:42.702Z,0
2018-02-25T03:28:42.696Z,0
2018-02-25T03:29:42.450Z,0
2018-02-25T03:30:42.719Z,0
2018-02-25T03:31:42.519Z,0
2018-02-25T03:32:42.730Z,0
2018-02-25T03:33:42.224Z,0
2018-02-25T03:34:42.747Z,0
2018-02-25T03:35:42.750Z,0
2018-02-25T03:36:42.502Z,0
2018-02-25T03:37:42.506Z,0
2018-02-25T03:38:42.510Z,0
2018-02-25T03:39:42.784Z,0
2018-02-25T03:40:42.794Z,0
2018-02-25T03:41:42.797Z,0
2018-02-25T03:42:42.801Z,0
2018-02-25T03:43:42.806Z,0
2018-02-25T03:44:42.310Z,0
2018-02-25T03:45:42.827Z,0
2018-02-25T03:46:42.375Z,0
2018-02-25T03:47:42.350Z,0
2018-02-25T03:48:42.867Z,0
2018-02-25T03:49:42.859Z,0
2018-02-25T03:50:42.366Z,0
2018-02-25T03:51:42.362Z,0
2018-02-25T03:52:42.623Z,0
2018-02-25T03:53:42.891Z,0
2018-02-25T03:54:42.639Z,0
2018-02-25T03:55:42.640Z,0
2018-02-25T03:56:42.648Z,0
2018-02-25T03:57:42.664Z,0
2018-02-25T03:58:42.408Z,0
2018-02-25T03:59:42.420Z,0
2018-02-25T04:00:42.426Z,0
2018-02-25T04:01:42.988Z,0
2018-02-25T04:02:42.186Z,0
2018-02-25T04:03:42.957Z,0
2018-02-25T04:04:42.713Z,0
2018-02-25T04:05:42.713Z,0
2018-02-25T04:06:42.467Z,0
2018-02-25T04:07:42.730Z,0
2018-02-25T04:08:42.481Z,0
2018-02-25T04:09:42.487Z,0
2018-02-25T04:10:43.006Z,0
2018-02-25T04:11:42.767Z,0
2018-02-25T04:12:42.509Z,0
2018-02-25T04:13:42.278Z,0
2018-02-25T04:14:42.527Z,0
2018-02-25T04:15:43.038Z,0
2018-02-25T04:16:43.124Z,0
2018-02-25T04:17:42.547Z,0
2018-02-25T04:18:42.814Z,0
2018-02-25T04:19:42.818Z,0
2018-02-25T04:20:42.833Z,0
2018-02-25T04:21:42.835Z,0
2018-02-25T04:22:43.091Z,0
2018-02-25T04:23:42.589Z,0
2018-02-25T04:24:42.853Z,0
2018-02-25T04:25:43.111Z,0
2018-02-25T04:26:42.867Z,0
2018-02-25T04:27:42.617Z,0
2018-02-25T04:28:43.136Z,0
2018-02-25T04:29:42.884Z,0
2018-02-25T04:30:42.642Z,0
2018-02-25T04:31:42.951Z,0
2018-02-25T04:32:42.658Z,0
2018-02-25T04:33:42.913Z,0
2018-02-25T04:34:43.171Z,0
2018-02-25T04:35:43.184Z,0
2018-02-25T04:36:43.200Z,0
2018-02-25T04:37:42.941Z,0
2018-02-25T04:38:42.950Z,0
2018-02-25T04:39:42.450Z,0
2018-02-25T04:40:42.715Z,0
2018-02-25T04:41:43.224Z,0
2018-02-25T04:42:43.249Z,0
2018-02-25T04:43:43.244Z,0
2018-02-25T04:44:42.988Z,0
2018-02-25T04:45:43.258Z,0
2018-02-25T04:46:43.307Z,0
2018-02-25T04:47:43.014Z,0
2018-02-25T04:48:42.774Z,0
2018-02-25T04:49:43.294Z,0
2018-02-25T04:50:43.298Z,0
2018-02-25T04:51:43.294Z,0
2018-02-25T04:52:42.811Z,0
2018-02-25T04:53:43.053Z,0
2018-02-25T04:54:43.063Z,0
2018-02-25T04:55:42.817Z,0
2018-02-25T04:56:43.084Z,0
2018-02-25T04:57:43.084Z,0
2018-02-25T04:58:43.092Z,0
2018-02-25T04:59:43.099Z,0
2018-02-25T05:00:43.390Z,0
2018-02-25T05:01:43.367Z,0
2018-02-25T05:02:42.868Z,0
2018-02-25T05:03:42.930Z,0
2018-02-25T05:04:43.131Z,0
2018-02-25T05:05:43.400Z,0
2018-02-25T05:06:43.408Z,0
2018-02-25T05:07:43.159Z,0
2018-02-25T05:08:43.423Z,0
2018-02-25T05:09:43.425Z,0
2018-02-25T05:10:43.426Z,0
2018-02-25T05:11:43.438Z,0
2018-02-25T05:12:43.450Z,0
2018-02-25T05:13:43.492Z,0
2018-02-25T05:14:42.956Z,0
2018-02-25T05:15:43.472Z,0
2018-02-25T05:16:43.472Z,0
2018-02-25T05:17:43.221Z,0
2018-02-25T05:18:43.283Z,0
2018-02-25T05:19:43.232Z,0
2018-02-25T05:20:43.250Z,0
2018-02-25T05:21:43.504Z,0
2018-02-25T05:22:43.282Z,0
2018-02-25T05:23:43.516Z,0
2018-02-25T05:24:43.268Z,0
2018-02-25T05:25:43.542Z,0
2018-02-25T05:26:43.541Z,0
2018-02-25T05:27:43.298Z,0
2018-02-25T05:28:43.045Z,0
2018-02-25T05:29:43.309Z,0
2018-02-25T05:30:43.568Z,0
2018-02-25T05:31:43.573Z,0
2018-02-25T05:32:43.352Z,0
2018-02-25T05:33:43.636Z,0
2018-02-25T05:34:43.593Z,4
2018-02-25T05:35:43.607Z,0
2018-02-25T05:36:43.355Z,4
2018-02-25T05:37:43.615Z,0
2018-02-25T05:38:42.860Z,4
2018-02-25T05:39:43.431Z,4
2018-02-25T05:40:43.381Z,4
2018-02-25T05:41:43.638Z,4
2018-02-25T05:42:43.646Z,8
2018-02-25T05:43:43.659Z,8
2018-02-25T05:44:43.663Z,8
2018-02-25T05:45:43.678Z,16
2018-02-25T05:46:42.913Z,16
2018-02-25T05:47:43.440Z,20
2018-02-25T05:48:43.246Z,24
2018-02-25T05:49:43.456Z,24
2018-02-25T05:50:43.712Z,32
2018-02-25T05:51:43.716Z,40
2018-02-25T05:52:43.458Z,40
2018-02-25T05:53:43.474Z,48
2018-02-25T05:54:43.774Z,60
2018-02-25T05:55:43.750Z,68
2018-02-25T05:56:43.485Z,76
2018-02-25T05:57:43.699Z,88
2018-02-25T05:58:43.523Z,100
2018-02-25T05:59:43.258Z,116
2018-02-25T06:00:43.521Z,128
2018-02-25T06:01:43.784Z,144
2018-02-25T06:02:43.539Z,156
2018-02-25T06:03:43.851Z,172
2018-02-25T06:04:43.040Z,184
2018-02-25T06:05:43.553Z,204
2018-02-25T06:06:43.316Z,224
2018-02-25T06:07:43.315Z,240
2018-02-25T06:08:43.572Z,260
2018-02-25T06:09:43.584Z,284
2018-02-25T06:10:43.872Z,304
2018-02-25T06:11:43.596Z,332
2018-02-25T06:12:43.599Z,364
2018-02-25T06:13:43.617Z,400
2018-02-25T06:14:43.627Z,436
2018-02-25T06:15:43.624Z,480
2018-02-25T06:16:43.629Z,512
2018-02-25T06:17:43.391Z,552
2018-02-25T06:18:43.712Z,596
2018-02-25T06:19:43.905Z,636
2018-02-25T06:20:43.665Z,676
2018-02-25T06:21:43.669Z,720
2018-02-25T06:22:43.673Z,772
2018-02-25T06:23:43.944Z,824
2018-02-25T06:24:43.944Z,880
2018-02-25T06:25:43.699Z,936
2018-02-25T06:26:43.452Z,988
2018-02-25T06:27:43.733Z,1040
2018-02-25T06:28:43.976Z,1092
2018-02-25T06:29:43.982Z,1132
2018-02-25T06:30:43.479Z,1172
2018-02-25T06:31:43.488Z,1216
2018-02-25T06:32:43.749Z,1280
2018-02-25T06:33:43.756Z,1348
2018-02-25T06:34:43.766Z,1420
2018-02-25T06:35:43.825Z,1500
2018-02-25T06:36:44.033Z,1576
2018-02-25T06:37:44.041Z,1644
2018-02-25T06:38:44.042Z,1696
2018-02-25T06:39:43.563Z,1736
2018-02-25T06:40:43.862Z,1768
2018-02-25T06:41:44.070Z,1772
2018-02-25T06:42:43.571Z,1848
2018-02-25T06:43:44.081Z,1876
2018-02-25T06:44:44.097Z,1908
2018-02-25T06:45:44.106Z,1952
2018-02-25T06:46:44.110Z,2032
2018-02-25T06:47:44.127Z,2144
2018-02-25T06:48:44.116Z,2252
2018-02-25T06:49:43.643Z,2360
2018-02-25T06:50:43.437Z,2476
2018-02-25T06:51:43.892Z,2568
2018-02-25T06:52:43.900Z,2640
2018-02-25T06:53:43.903Z,2716
2018-02-25T06:54:43.654Z,2792
2018-02-25T06:55:44.173Z,2864
2018-02-25T06:56:43.928Z,2936
2018-02-25T06:57:44.188Z,3000
2018-02-25T06:58:43.944Z,3108
2018-02-25T06:59:43.709Z,3140
2018-02-25T07:00:43.702Z,3192
2018-02-25T07:01:43.960Z,3200
2018-02-25T07:02:43.714Z,3312
2018-02-25T07:03:43.731Z,3424
2018-02-25T07:04:43.999Z,3464
2018-02-25T07:05:44.299Z,3576
2018-02-25T07:06:44.002Z,3596
2018-02-25T07:07:44.270Z,3636
2018-02-25T07:08:43.510Z,3712
2018-02-25T07:09:44.283Z,3744
2018-02-25T07:10:43.778Z,3776
2018-02-25T07:11:44.048Z,3820
2018-02-25T07:12:44.307Z,3860
2018-02-25T07:13:44.325Z,3808
2018-02-25T07:14:43.809Z,3784
2018-02-25T07:15:44.326Z,3880
2018-02-25T07:16:44.078Z,3988
2018-02-25T07:17:44.351Z,3936
2018-02-25T07:18:44.355Z,3980
2018-02-25T07:19:44.108Z,4024
2018-02-25T07:20:44.161Z,4008
2018-02-25T07:21:44.116Z,4028
2018-02-25T07:22:44.375Z,4072
2018-02-25T07:23:44.383Z,4308
2018-02-25T07:24:44.138Z,4508
2018-02-25T07:25:44.399Z,4508
2018-02-25T07:26:44.241Z,4388
2018-02-25T07:27:43.906Z,4704
2018-02-25T07:28:44.418Z,4768
2018-02-25T07:29:44.180Z,4768
2018-02-25T07:30:44.235Z,4400
2018-02-25T07:31:44.250Z,4832
2018-02-25T07:32:43.944Z,4888
2018-02-25T07:33:43.952Z,4788
2018-02-25T07:34:44.475Z,4680
2018-02-25T07:35:43.968Z,4688
2018-02-25T07:36:44.251Z,4700
2018-02-25T07:37:44.492Z,4684
2018-02-25T07:38:44.003Z,4820
2018-02-25T07:39:44.255Z,5244
2018-02-25T07:40:44.524Z,5040
2018-02-25T07:41:44.531Z,5044
2018-02-25T07:42:44.542Z,5572
2018-02-25T07:43:44.312Z,5684
2018-02-25T07:44:44.625Z,5820
2018-02-25T07:45:44.356Z,5880
2018-02-25T07:46:44.566Z,5928
2018-02-25T07:47:44.569Z,5956
2018-02-25T07:48:44.583Z,5900
2018-02-25T07:49:44.332Z,5948
2018-02-25T07:50:44.091Z,5944
2018-02-25T07:51:44.352Z,6196
2018-02-25T07:52:44.656Z,4436
2018-02-25T07:53:44.364Z,6256
2018-02-25T07:54:44.621Z,6188
2018-02-25T07:55:44.640Z,6432
2018-02-25T07:56:44.390Z,5360
2018-02-25T07:57:44.708Z,6440
2018-02-25T07:58:44.665Z,6452
2018-02-25T07:59:44.672Z,6536
2018-02-25T08:00:44.425Z,6580
2018-02-25T08:01:44.442Z,6668
2018-02-25T08:02:44.491Z,6676
2018-02-25T08:03:44.708Z,4868
2018-02-25T08:04:44.453Z,6700
2018-02-25T08:05:44.484Z,6104
2018-02-25T08:06:44.727Z,6636
2018-02-25T08:07:44.483Z,6804
2018-02-25T08:08:44.488Z,6892
2018-02-25T08:09:44.754Z,7000
2018-02-25T08:10:44.523Z,6976
2018-02-25T08:11:44.771Z,7032
2018-02-25T08:12:44.292Z,7252
2018-02-25T08:13:44.556Z,7220
2018-02-25T08:14:44.808Z,7168
2018-02-25T08:15:44.550Z,7204
2018-02-25T08:16:44.046Z,7356
2018-02-25T08:17:44.357Z,7308
2018-02-25T08:18:44.821Z,7248
2018-02-25T08:19:44.325Z,7308
2018-02-25T08:20:44.851Z,7372
2018-02-25T08:21:44.595Z,7288
2018-02-25T08:22:44.608Z,7396
2018-02-25T08:23:44.869Z,7468
2018-02-25T08:24:44.623Z,7448
2018-02-25T08:25:44.876Z,7520
2018-02-25T08:26:44.633Z,7488
2018-02-25T08:27:44.642Z,7552
2018-02-25T08:28:44.909Z,7540
2018-02-25T08:29:44.914Z,7488
2018-02-25T08:30:44.670Z,7568
2018-02-25T08:31:44.926Z,7672
2018-02-25T08:32:44.781Z,7708
2018-02-25T08:33:44.952Z,7652
2018-02-25T08:34:44.956Z,7732
2018-02-25T08:35:44.211Z,7788
2018-02-25T08:36:44.848Z,7788
2018-02-25T08:37:44.746Z,7840
2018-02-25T08:38:44.996Z,7792
2018-02-25T08:39:44.502Z,7944
2018-02-25T08:40:45.010Z,7940
2018-02-25T08:41:44.765Z,7980
2018-02-25T08:42:44.768Z,7852
2018-02-25T08:43:45.040Z,8112
2018-02-25T08:44:45.044Z,8180
2018-02-25T08:45:45.052Z,8172
2018-02-25T08:46:45.062Z,8224
2018-02-25T08:47:45.130Z,8296
2018-02-25T08:48:44.828Z,8420
2018-02-25T08:49:45.096Z,8424
2018-02-25T08:50:45.101Z,8472
2018-02-25T08:51:45.107Z,8568
2018-02-25T08:52:45.111Z,8472
2018-02-25T08:53:45.149Z,8544
2018-02-25T08:54:44.879Z,8572
2018-02-25T08:55:45.137Z,8668
2018-02-25T08:56:45.149Z,8676
2018-02-25T08:57:45.167Z,8604
2018-02-25T08:58:45.164Z,8712
2018-02-25T08:59:44.927Z,8732
2018-02-25T09:00:44.678Z,8688
2018-02-25T09:01:45.199Z,8780
2018-02-25T09:02:44.495Z,8728
2018-02-25T09:03:45.222Z,8728
2018-02-25T09:04:44.968Z,8764
2018-02-25T09:05:45.235Z,8840
2018-02-25T09:06:44.477Z,9028
2018-02-25T09:07:45.006Z,9032
2018-02-25T09:08:44.493Z,8964
2018-02-25T09:09:45.007Z,8972
2018-02-25T09:10:45.273Z,9096
2018-02-25T09:11:44.780Z,9036
2018-02-25T09:12:45.137Z,9208
2018-02-25T09:13:45.311Z,9132
2018-02-25T09:14:44.797Z,9208
2018-02-25T09:15:45.078Z,9200
2018-02-25T09:16:45.078Z,9240
2018-02-25T09:17:45.131Z,9224
2018-02-25T09:18:45.352Z,9284
2018-02-25T09:19:44.845Z,9328
2018-02-25T09:20:45.360Z,9400
2018-02-25T09:21:45.375Z,9300
2018-02-25T09:22:45.404Z,9416
2018-02-25T09:23:44.881Z,9488
2018-02-25T09:24:45.144Z,9520
2018-02-25T09:25:45.203Z,9540
2018-02-25T09:26:45.419Z,9584
2018-02-25T09:27:45.174Z,9564
2018-02-25T09:28:45.442Z,9644
2018-02-25T09:29:45.190Z,9640
2018-02-25T09:30:44.959Z,9688
2018-02-25T09:31:45.227Z,9760
2018-02-25T09:32:45.534Z,9784
2018-02-25T09:33:45.495Z,9856
2018-02-25T09:34:45.246Z,9792
2018-02-25T09:35:45.502Z,9800
2018-02-25T09:36:45.534Z,9872
2018-02-25T09:37:45.264Z,9828
2018-02-25T09:38:45.553Z,9876
2018-02-25T09:39:45.543Z,9868
2018-02-25T09:40:45.041Z,9992
2018-02-25T09:41:45.306Z,10032
2018-02-25T09:42:45.575Z,10008
2018-02-25T09:43:45.599Z,10032
2018-02-25T09:44:45.085Z,10044
2018-02-25T09:45:45.097Z,10060
2018-02-25T09:46:45.107Z,10064
2018-02-25T09:47:45.413Z,10112
2018-02-25T09:48:45.628Z,10232
2018-02-25T09:49:45.389Z,10088
2018-02-25T09:50:45.666Z,10228
2018-02-25T09:51:45.416Z,10284
2018-02-25T09:52:45.681Z,10344
2018-02-25T09:53:45.682Z,10380
2018-02-25T09:54:45.181Z,10324
2018-02-25T09:55:45.529Z,10452
2018-02-25T09:56:45.465Z,10476
2018-02-25T09:57:45.517Z,10432
2018-02-25T09:58:45.485Z,10456
2018-02-25T09:59:45.491Z,10444
2018-02-25T10:00:45.757Z,10572
2018-02-25T10:01:45.762Z,10496
2018-02-25T10:02:45.277Z,10540
2018-02-25T10:03:45.792Z,10596
2018-02-25T10:04:45.799Z,10576
2018-02-25T10:05:45.548Z,10524
2018-02-25T10:06:45.572Z,10548
2018-02-25T10:07:45.568Z,10624
2018-02-25T10:08:45.333Z,10640
2018-02-25T10:09:45.849Z,10696
2018-02-25T10:10:45.600Z,10700
2018-02-25T10:11:45.360Z,10776
2018-02-25T10:12:45.924Z,10784
2018-02-25T10:13:45.886Z,10820
2018-02-25T10:14:45.393Z,10856
2018-02-25T10:15:45.655Z,10864
2018-02-25T10:16:45.912Z,10948
2018-02-25T10:17:45.940Z,10876
2018-02-25T10:18:45.687Z,10900
2018-02-25T10:19:45.691Z,10932
2018-02-25T10:20:45.702Z,10932
2018-02-25T10:21:45.977Z,11004
2018-02-25T10:22:45.732Z,10964
2018-02-25T10:23:45.481Z,13320
2018-02-25T10:24:45.744Z,23488
2018-02-25T10:25:45.757Z,33664
2018-02-25T10:26:45.771Z,36864
2018-02-25T10:27:45.975Z,40672
2018-02-25T10:28:45.549Z,41728
2018-02-25T10:29:45.805Z,41920
2018-02-25T10:30:45.812Z,41216
2018-02-25T10:31:46.080Z,40800
2018-02-25T10:32:46.140Z,39424
2018-02-25T10:33:45.852Z,40544
2018-02-25T10:34:45.868Z,41728
2018-02-25T10:35:45.624Z,44128
2018-02-25T10:36:45.636Z,43616
2018-02-25T10:37:46.903Z,44128
2018-02-25T10:38:46.215Z,44800
2018-02-25T10:39:46.205Z,45280
2018-02-25T10:40:45.696Z,45824
2018-02-25T10:41:45.455Z,44768
2018-02-25T10:42:46.285Z,44704
2018-02-25T10:43:45.993Z,46272
2018-02-25T10:44:45.516Z,46816
2018-02-25T10:45:45.774Z,48064
2018-02-25T10:46:45.540Z,49376
2018-02-25T10:47:46.418Z,48896
2018-02-25T10:48:46.086Z,48032
2018-02-25T10:49:46.109Z,47040
2018-02-25T10:50:45.902Z,46656
2018-02-25T10:51:45.876Z,49760
2018-02-25T10:52:45.897Z,47840
2018-02-25T10:53:45.915Z,47040
2018-02-25T10:54:45.932Z,48000
2018-02-25T10:55:46.213Z,49440
2018-02-25T10:56:45.964Z,50848
2018-02-25T10:57:46.240Z,53056
2018-02-25T10:58:46.024Z,52224
2018-02-25T10:59:46.024Z,53024
2018-02-25T11:00:46.612Z,48640
2018-02-25T11:01:46.325Z,47680
2018-02-25T11:02:46.589Z,49280
2018-02-25T11:03:46.105Z,49952
2018-02-25T11:04:45.874Z,48736
2018-02-25T11:05:46.659Z,46080
2018-02-25T11:06:46.422Z,46272
2018-02-25T11:07:46.452Z,41952
2018-02-25T11:08:46.462Z,40224
2018-02-25T11:09:46.743Z,41760
2018-02-25T11:10:46.500Z,38080
2018-02-25T11:11:46.788Z,37856
2018-02-25T11:12:46.543Z,34816
2018-02-25T11:13:46.824Z,35072
2018-02-25T11:14:46.331Z,37824
2018-02-25T11:15:46.661Z,39072
2018-02-25T11:16:46.885Z,40032
2018-02-25T11:17:46.401Z,42944
2018-02-25T11:18:46.701Z,47904
2018-02-25T11:19:46.700Z,51712
2018-02-25T11:20:47.069Z,49696
2018-02-25T11:21:46.996Z,43168
2018-02-25T11:22:46.507Z,41792
2018-02-25T11:23:46.786Z,42528
2018-02-25T11:24:46.806Z,42496
2018-02-25T11:25:46.675Z,42464
2018-02-25T11:26:46.856Z,42400
2018-02-25T11:27:47.172Z,43424
2018-02-25T11:28:46.642Z,46176
2018-02-25T11:29:46.915Z,46304
2018-02-25T11:30:47.252Z,48832
2018-02-25T11:31:47.245Z,46304
2018-02-25T11:32:47.234Z,40000
2018-02-25T11:33:46.752Z,38016
2018-02-25T11:34:47.033Z,40256
2018-02-25T11:35:47.058Z,44032
2018-02-25T11:36:47.359Z,51072
2018-02-25T11:37:47.112Z,55296
2018-02-25T11:38:47.140Z,55168
2018-02-25T11:39:47.403Z,55680
2018-02-25T11:40:46.771Z,57312
2018-02-25T11:41:47.201Z,55744
2018-02-25T11:42:47.523Z,51968
2018-02-25T11:43:46.738Z,51808
2018-02-25T11:44:47.332Z,53760
2018-02-25T11:45:47.601Z,53568
2018-02-25T11:46:47.068Z,54144
2018-02-25T11:47:47.652Z,52800
2018-02-25T11:48:47.650Z,51488
2018-02-25T11:49:47.649Z,54400
2018-02-25T11:50:47.669Z,57472
2018-02-25T11:51:47.455Z,56576
2018-02-25T11:52:47.503Z,57568
2018-02-25T11:53:47.507Z,60768
2018-02-25T11:54:47.521Z,62528
2018-02-25T11:55:47.799Z,62304
2018-02-25T11:56:47.687Z,61824
2018-02-25T11:57:47.595Z,62016
2018-02-25T11:58:47.625Z,63168
2018-02-25T11:59:47.899Z,63584
2018-02-25T12:00:47.939Z,64832
2018-02-25T12:01:47.488Z,67040
2018-02-25T12:02:47.726Z,66144
2018-02-25T12:03:47.493Z,60416
2018-02-25T12:04:48.020Z,57344
2018-02-25T12:05:47.540Z,57728
2018-02-25T12:06:48.077Z,57600
2018-02-25T12:07:48.100Z,62112
2018-02-25T12:08:47.615Z,72128
2018-02-25T12:09:47.893Z,75968
2018-02-25T12:10:47.666Z,73344
2018-02-25T12:11:48.240Z,71136
2018-02-25T12:12:47.971Z,71392
2018-02-25T12:13:47.997Z,72064
2018-02-25T12:14:48.272Z,73696
2018-02-25T12:15:48.045Z,76992
2018-02-25T12:16:47.870Z,77440
2018-02-25T12:17:47.843Z,73536
2018-02-25T12:18:48.381Z,70720
2018-02-25T12:19:48.152Z,71424
2018-02-25T12:20:48.172Z,75488
2018-02-25T12:21:47.946Z,77664
2018-02-25T12:22:48.236Z,75936
2018-02-25T12:23:48.254Z,76384
2018-02-25T12:24:48.025Z,77248
2018-02-25T12:25:48.306Z,79168
2018-02-25T12:26:48.333Z,80000
2018-02-25T12:27:48.612Z,80320
2018-02-25T12:28:48.637Z,81760
2018-02-25T12:29:48.412Z,80864
2018-02-25T12:30:48.695Z,79840
2018-02-25T12:31:48.801Z,78688
2018-02-25T12:32:48.752Z,79200
2018-02-25T12:33:48.522Z,80352
2018-02-25T12:34:48.549Z,81504
2018-02-25T12:35:48.317Z,79904
2018-02-25T12:36:48.851Z,81216
2018-02-25T12:37:48.628Z,81344
2018-02-25T12:38:48.905Z,81408
2018-02-25T12:39:48.989Z,80608
2018-02-25T12:40:48.455Z,76640
2018-02-25T12:41:48.779Z,75360
2018-02-25T12:42:49.012Z,75616
2018-02-25T12:43:48.527Z,84512
2018-02-25T12:44:48.564Z,81056
2018-02-25T12:45:49.098Z,76960
2018-02-25T12:46:49.118Z,67968
2018-02-25T12:47:49.185Z,58464
2018-02-25T12:48:49.169Z,51648
2018-02-25T12:49:49.198Z,58144
2018-02-25T12:50:48.714Z,62624
2018-02-25T12:51:48.740Z,67744
2018-02-25T12:52:49.023Z,68064
2018-02-25T12:53:49.310Z,64896
2018-02-25T12:54:49.336Z,59872
2018-02-25T12:55:49.114Z,63552
2018-02-25T12:56:49.193Z,71360
2018-02-25T12:57:49.415Z,78048
2018-02-25T12:58:48.937Z,80704
2018-02-25T12:59:49.220Z,82016
2018-02-25T13:00:49.500Z,79232
2018-02-25T13:01:49.530Z,75584
2018-02-25T13:02:49.300Z,73728
2018-02-25T13:03:49.323Z,73792
2018-02-25T13:04:49.357Z,73248
2018-02-25T13:05:49.381Z,72896
2018-02-25T13:06:49.658Z,68320
2018-02-25T13:07:49.431Z,60768
2018-02-25T13:08:49.455Z,54976
2018-02-25T13:09:49.512Z,58016
2018-02-25T13:10:49.528Z,66784
2018-02-25T13:11:49.843Z,73696
2018-02-25T13:12:49.566Z,77056
2018-02-25T13:13:49.602Z,77184
2018-02-25T13:14:49.621Z,74720
2018-02-25T13:15:49.907Z,72896
2018-02-25T13:16:49.673Z,73184
2018-02-25T13:17:49.731Z,75232
2018-02-25T13:18:49.984Z,77440
2018-02-25T13:19:49.750Z,78240
2018-02-25T13:20:49.785Z,77824
2018-02-25T13:21:50.063Z,75840
2018-02-25T13:22:49.924Z,72224
2018-02-25T13:23:50.126Z,69504
2018-02-25T13:24:49.891Z,71968
2018-02-25T13:25:50.171Z,73088
2018-02-25T13:26:50.254Z,74048
2018-02-25T13:27:50.229Z,76672
2018-02-25T13:28:49.744Z,74816
2018-02-25T13:29:50.039Z,71936
2018-02-25T13:30:50.052Z,69760
2018-02-25T13:31:50.346Z,71232
2018-02-25T13:32:49.849Z,71168
2018-02-25T13:33:50.133Z,70432
2018-02-25T13:34:50.174Z,68640
2018-02-25T13:35:49.927Z,64672
2018-02-25T13:36:49.955Z,62048
2018-02-25T13:37:50.258Z,63840
2018-02-25T13:38:50.525Z,68384
2018-02-25T13:39:50.569Z,75072
2018-02-25T13:40:50.608Z,80288
2018-02-25T13:41:50.644Z,87552
2018-02-25T13:42:50.119Z,88640
2018-02-25T13:43:50.173Z,86272
2018-02-25T13:44:50.425Z,82912
2018-02-25T13:45:50.203Z,80672
2018-02-25T13:46:50.230Z,83680